createdAt,value
2018-07-31T00:00:18.489Z,0.00
2018-07-31T00:01:50.061Z,0.00
2018-07-31T00:03:21.675Z,0.00
2018-07-31T00:04:53.304Z,0.00
2018-07-31T00:06:24.775Z,0.00
2018-07-31T00:07:56.345Z,0.00
2018-07-31T00:09:27.916Z,0.00
2018-07-31T00:10:59.494Z,0.00
2018-07-31T00:12:31.059Z,0.00
2018-07-31T00:14:02.629Z,0.00
2018-07-31T00:15:34.207Z,0.00
2018-07-31T00:17:05.871Z,0.00
2018-07-31T00:18:37.343Z,0.00
2018-07-31T00:20:08.916Z,0.00
2018-07-31T00:21:40.486Z,0.00
2018-07-31T00:23:12.409Z,0.00
2018-07-31T00:24:43.629Z,0.00
2018-07-31T00:26:15.199Z,0.00
2018-07-31T00:27:46.770Z,0.00
2018-07-31T00:29:18.340Z,0.00
2018-07-31T00:30:49.910Z,0.00
2018-07-31T00:32:21.481Z,0.00
2018-07-31T00:33:53.053Z,0.00
2018-07-31T00:35:24.623Z,0.00
2018-07-31T00:36:56.193Z,0.00
2018-07-31T00:38:27.763Z,0.00
2018-07-31T00:39:59.334Z,0.00
2018-07-31T00:41:31.005Z,0.00
2018-07-31T00:43:02.489Z,0.00
2018-07-31T00:44:34.045Z,0.00
2018-07-31T00:46:05.615Z,0.00
2018-07-31T00:47:37.285Z,0.00
2018-07-31T00:49:08.927Z,0.00
2018-07-31T00:50:40.326Z,0.00
2018-07-31T00:52:11.896Z,0.00
2018-07-31T00:53:43.464Z,0.00
2018-07-31T00:55:15.036Z,0.00
2018-07-31T00:56:46.604Z,0.00
2018-07-31T00:58:18.174Z,0.00
2018-07-31T00:59:49.845Z,0.00
2018-07-31T01:01:21.317Z,0.00
2018-07-31T01:02:52.884Z,0.00
2018-07-31T01:04:24.457Z,0.00
2018-07-31T01:05:56.024Z,0.00
2018-07-31T01:07:27.595Z,0.00
2018-07-31T01:08:59.165Z,0.00
2018-07-31T01:10:30.735Z,0.00
2018-07-31T01:12:02.307Z,0.00
2018-07-31T01:13:33.873Z,0.00
2018-07-31T01:15:05.448Z,0.00
2018-07-31T01:16:37.013Z,0.00
2018-07-31T01:18:08.784Z,0.00
2018-07-31T01:19:40.153Z,0.00
2018-07-31T01:21:11.723Z,0.00
2018-07-31T01:22:43.294Z,0.00
2018-07-31T01:24:14.967Z,0.00
2018-07-31T01:25:46.448Z,0.00
2018-07-31T01:27:18.002Z,0.00
2018-07-31T01:28:49.572Z,0.00
2018-07-31T01:30:21.141Z,0.00
2018-07-31T01:31:52.711Z,0.00
2018-07-31T01:33:24.281Z,0.00
2018-07-31T01:34:55.850Z,0.00
2018-07-31T01:36:27.521Z,0.00
2018-07-31T01:37:58.990Z,0.00
2018-07-31T01:39:30.559Z,0.00
2018-07-31T01:41:02.132Z,0.00
2018-07-31T01:42:33.706Z,0.00
2018-07-31T01:44:05.267Z,0.00
2018-07-31T01:45:36.838Z,0.00
2018-07-31T01:47:08.407Z,0.00
2018-07-31T01:48:40.228Z,0.00
2018-07-31T01:50:11.546Z,0.00
2018-07-31T01:51:43.118Z,0.00
2018-07-31T01:53:14.686Z,0.00
2018-07-31T01:54:46.455Z,0.00
2018-07-31T01:56:17.829Z,0.00
2018-07-31T01:57:49.395Z,0.00
2018-07-31T01:59:20.963Z,0.00
2018-07-31T02:00:52.533Z,0.00
2018-07-31T02:02:24.102Z,0.00
2018-07-31T02:03:55.671Z,0.00
2018-07-31T02:05:27.241Z,0.00
2018-07-31T02:06:58.810Z,0.00
2018-07-31T02:08:30.381Z,0.00
2018-07-31T02:10:01.952Z,0.00
2018-07-31T02:11:33.519Z,0.00
2018-07-31T02:13:05.187Z,0.00
2018-07-31T02:14:36.658Z,0.00
2018-07-31T02:16:08.227Z,0.00
2018-07-31T02:17:39.797Z,0.00
2018-07-31T02:19:11.567Z,0.00
2018-07-31T02:20:42.935Z,0.00
2018-07-31T02:22:14.506Z,0.00
2018-07-31T02:23:46.076Z,0.00
2018-07-31T02:25:17.745Z,0.00
2018-07-31T02:26:49.214Z,0.00
2018-07-31T02:28:20.957Z,0.00
2018-07-31T02:29:52.354Z,0.00
2018-07-31T02:31:24.023Z,0.00
2018-07-31T02:32:55.492Z,0.00
2018-07-31T02:34:27.061Z,0.00
2018-07-31T02:35:58.631Z,0.00
2018-07-31T02:37:30.202Z,0.00
2018-07-31T02:39:01.771Z,0.00
2018-07-31T02:40:33.342Z,0.00
2018-07-31T02:42:04.915Z,0.00
2018-07-31T02:43:36.481Z,0.00
2018-07-31T02:45:08.049Z,0.00
2018-07-31T02:46:39.618Z,0.00
2018-07-31T02:48:11.188Z,0.00
2018-07-31T02:49:42.959Z,0.00
2018-07-31T02:51:14.331Z,0.00
2018-07-31T02:52:45.897Z,0.00
2018-07-31T02:54:17.467Z,0.00
2018-07-31T02:55:49.136Z,0.00
2018-07-31T02:57:20.606Z,0.00
2018-07-31T02:58:52.175Z,0.00
2018-07-31T03:00:23.744Z,0.00
2018-07-31T03:01:55.315Z,0.00
2018-07-31T03:03:26.885Z,0.00
2018-07-31T03:04:58.483Z,0.00
2018-07-31T03:06:30.025Z,0.00
2018-07-31T03:08:01.767Z,0.00
2018-07-31T03:09:33.167Z,0.00
2018-07-31T03:11:04.732Z,0.00
2018-07-31T03:12:36.305Z,0.00
2018-07-31T03:14:07.876Z,0.00
2018-07-31T03:15:39.442Z,0.00
2018-07-31T03:17:11.012Z,0.00
2018-07-31T03:18:42.583Z,0.00
2018-07-31T03:20:14.260Z,0.00
2018-07-31T03:21:45.731Z,0.00
2018-07-31T03:23:17.291Z,0.00
2018-07-31T03:24:48.861Z,0.00
2018-07-31T03:26:20.632Z,0.00
2018-07-31T03:27:52.005Z,0.00
2018-07-31T03:29:23.572Z,0.00
2018-07-31T03:30:55.141Z,0.00
2018-07-31T03:32:26.714Z,0.00
2018-07-31T03:33:58.282Z,0.00
2018-07-31T03:35:29.852Z,0.00
2018-07-31T03:37:01.422Z,0.00
2018-07-31T03:38:32.992Z,0.00
2018-07-31T03:40:04.562Z,0.00
2018-07-31T03:41:36.133Z,0.00
2018-07-31T03:43:07.703Z,0.00
2018-07-31T03:44:39.573Z,0.00
2018-07-31T03:46:10.843Z,0.00
2018-07-31T03:47:42.413Z,0.00
2018-07-31T03:49:13.985Z,0.00
2018-07-31T03:50:45.680Z,0.00
2018-07-31T03:52:17.124Z,0.00
2018-07-31T03:53:48.694Z,0.00
2018-07-31T03:55:20.270Z,0.00
2018-07-31T03:56:51.939Z,0.00
2018-07-31T03:58:23.404Z,0.00
2018-07-31T03:59:54.974Z,0.00
2018-07-31T04:01:26.545Z,0.00
2018-07-31T04:02:58.215Z,0.00
2018-07-31T04:04:29.687Z,0.00
2018-07-31T04:06:01.256Z,0.00
2018-07-31T04:07:32.826Z,0.00
2018-07-31T04:09:04.396Z,0.00
2018-07-31T04:10:35.965Z,0.00
2018-07-31T04:12:07.533Z,0.00
2018-07-31T04:13:39.103Z,0.00
2018-07-31T04:15:10.673Z,0.00
2018-07-31T04:16:42.276Z,0.00
2018-07-31T04:18:13.815Z,0.00
2018-07-31T04:19:45.382Z,0.00
2018-07-31T04:21:17.614Z,0.00
2018-07-31T04:22:48.523Z,0.00
2018-07-31T04:24:20.091Z,0.00
2018-07-31T04:25:51.662Z,0.00
2018-07-31T04:27:23.332Z,0.00
2018-07-31T04:28:54.801Z,0.00
2018-07-31T04:30:26.371Z,0.00
2018-07-31T04:31:57.940Z,0.00
2018-07-31T04:33:29.509Z,0.00
2018-07-31T04:35:01.080Z,0.00
2018-07-31T04:36:32.650Z,0.00
2018-07-31T04:38:04.219Z,0.00
2018-07-31T04:39:35.889Z,0.00
2018-07-31T04:41:07.402Z,0.00
2018-07-31T04:42:38.929Z,0.00
2018-07-31T04:44:10.497Z,0.00
2018-07-31T04:45:42.067Z,0.00
2018-07-31T04:47:13.636Z,0.00
2018-07-31T04:48:45.209Z,0.00
2018-07-31T04:50:16.824Z,0.00
2018-07-31T04:51:48.596Z,0.00
2018-07-31T04:53:19.916Z,0.00
2018-07-31T04:54:51.485Z,0.00
2018-07-31T04:56:23.054Z,0.00
2018-07-31T04:57:54.825Z,0.00
2018-07-31T04:59:26.195Z,0.00
2018-07-31T05:00:57.763Z,0.00
2018-07-31T05:02:29.333Z,0.00
2018-07-31T05:04:01.002Z,0.00
2018-07-31T05:05:32.471Z,0.00
2018-07-31T05:07:04.041Z,0.00
2018-07-31T05:08:35.613Z,0.00
2018-07-31T05:10:07.180Z,0.00
2018-07-31T05:11:38.750Z,0.00
2018-07-31T05:13:10.319Z,0.00
2018-07-31T05:14:41.890Z,0.00
2018-07-31T05:16:13.808Z,0.00
2018-07-31T05:17:45.032Z,0.00
2018-07-31T05:19:16.596Z,0.00
2018-07-31T05:20:48.166Z,0.00
2018-07-31T05:22:19.985Z,0.00
2018-07-31T05:23:51.305Z,0.00
2018-07-31T05:25:23.049Z,0.00
2018-07-31T05:26:54.443Z,0.00
2018-07-31T05:28:26.113Z,0.00
2018-07-31T05:29:57.582Z,0.00
2018-07-31T05:31:29.151Z,0.00
2018-07-31T05:33:00.726Z,0.00
2018-07-31T05:34:32.441Z,0.00
2018-07-31T05:36:03.859Z,0.00
2018-07-31T05:37:35.429Z,0.00
2018-07-31T05:39:06.999Z,0.00
2018-07-31T05:40:38.567Z,0.00
2018-07-31T05:42:10.136Z,0.00
2018-07-31T05:43:41.705Z,0.00
2018-07-31T05:45:13.274Z,0.00
2018-07-31T05:46:44.843Z,0.00
2018-07-31T05:48:16.412Z,0.00
2018-07-31T05:49:47.984Z,0.00
2018-07-31T05:51:19.551Z,0.00
2018-07-31T05:52:51.471Z,0.00
2018-07-31T05:54:22.690Z,0.00
2018-07-31T05:55:54.258Z,0.00
2018-07-31T05:57:25.850Z,0.00
2018-07-31T05:58:57.496Z,0.00
2018-07-31T06:00:28.965Z,0.00
2018-07-31T06:02:00.535Z,0.00
2018-07-31T06:03:32.145Z,0.00
2018-07-31T06:05:03.775Z,0.00
2018-07-31T06:06:35.243Z,0.00
2018-07-31T06:08:06.812Z,0.00
2018-07-31T06:09:38.435Z,0.00
2018-07-31T06:11:10.050Z,0.00
2018-07-31T06:12:41.519Z,0.00
2018-07-31T06:14:13.088Z,0.00
2018-07-31T06:15:44.657Z,0.00
2018-07-31T06:17:16.227Z,0.00
2018-07-31T06:18:47.895Z,0.00
2018-07-31T06:20:19.364Z,0.00
2018-07-31T06:21:50.933Z,0.00
2018-07-31T06:23:22.602Z,0.00
2018-07-31T06:24:54.072Z,0.00
2018-07-31T06:26:25.643Z,0.00
2018-07-31T06:27:57.240Z,0.00
2018-07-31T06:29:28.979Z,0.00
2018-07-31T06:31:00.343Z,0.00
2018-07-31T06:32:31.913Z,0.00
2018-07-31T06:34:03.481Z,0.00
2018-07-31T06:35:35.052Z,0.00
2018-07-31T06:37:06.620Z,0.00
2018-07-31T06:38:38.190Z,0.00
2018-07-31T06:40:09.760Z,0.00
2018-07-31T06:41:41.328Z,0.00
2018-07-31T06:43:12.898Z,0.00
2018-07-31T06:44:44.467Z,0.00
2018-07-31T06:46:16.037Z,0.00
2018-07-31T06:47:47.708Z,0.00
2018-07-31T06:49:19.238Z,0.00
2018-07-31T06:50:50.743Z,0.00
2018-07-31T06:52:22.313Z,0.00
2018-07-31T06:53:54.134Z,0.00
2018-07-31T06:55:25.452Z,0.00
2018-07-31T06:56:57.022Z,0.00
2018-07-31T06:58:28.590Z,0.00
2018-07-31T07:00:00.162Z,0.00
2018-07-31T07:01:31.731Z,0.00
2018-07-31T07:03:03.300Z,0.00
2018-07-31T07:04:34.869Z,0.00
2018-07-31T07:06:06.539Z,0.00
2018-07-31T07:07:38.008Z,0.00
2018-07-31T07:09:09.581Z,0.00
2018-07-31T07:10:41.149Z,0.00
2018-07-31T07:12:12.718Z,0.00
2018-07-31T07:13:44.287Z,0.00
2018-07-31T07:15:15.857Z,0.00
2018-07-31T07:16:47.426Z,0.00
2018-07-31T07:18:18.996Z,0.00
2018-07-31T07:19:50.567Z,0.00
2018-07-31T07:21:22.136Z,0.00
2018-07-31T07:22:53.706Z,0.00
2018-07-31T07:24:25.476Z,0.00
2018-07-31T07:25:56.845Z,0.00
2018-07-31T07:27:28.414Z,0.00
2018-07-31T07:28:59.984Z,0.00
2018-07-31T07:30:31.658Z,0.00
2018-07-31T07:32:03.126Z,0.00
2018-07-31T07:33:34.770Z,0.00
2018-07-31T07:35:06.263Z,0.00
2018-07-31T07:36:37.833Z,0.00
2018-07-31T07:38:09.404Z,0.00
2018-07-31T07:39:40.976Z,0.00
2018-07-31T07:41:12.542Z,0.00
2018-07-31T07:42:44.212Z,0.00
2018-07-31T07:44:15.683Z,0.00
2018-07-31T07:45:47.253Z,0.00
2018-07-31T07:47:18.821Z,0.00
2018-07-31T07:48:50.393Z,0.00
2018-07-31T07:50:21.960Z,0.00
2018-07-31T07:51:53.529Z,0.00
2018-07-31T07:53:25.099Z,0.00
2018-07-31T07:54:56.869Z,0.00
2018-07-31T07:56:28.237Z,0.00
2018-07-31T07:57:59.807Z,0.00
2018-07-31T07:59:31.380Z,0.00
2018-07-31T08:01:03.146Z,0.00
2018-07-31T08:02:34.515Z,0.00
2018-07-31T08:04:06.120Z,0.00
2018-07-31T08:05:37.657Z,0.00
2018-07-31T08:07:09.324Z,0.00
2018-07-31T08:08:40.824Z,0.00
2018-07-31T08:10:12.432Z,0.00
2018-07-31T08:11:44.001Z,0.00
2018-07-31T08:13:15.601Z,0.00
2018-07-31T08:14:47.070Z,0.00
2018-07-31T08:16:18.639Z,0.00
2018-07-31T08:17:50.210Z,0.00
2018-07-31T08:19:22.029Z,0.00
2018-07-31T08:20:53.349Z,0.00
2018-07-31T08:22:24.916Z,0.00
2018-07-31T08:23:56.487Z,0.00
2018-07-31T08:25:28.057Z,0.00
2018-07-31T08:26:59.624Z,0.00
2018-07-31T08:28:31.193Z,0.00
2018-07-31T08:30:02.762Z,0.00
2018-07-31T08:31:34.431Z,0.00
2018-07-31T08:33:05.901Z,0.00
2018-07-31T08:34:37.470Z,0.00
2018-07-31T08:36:09.040Z,0.00
2018-07-31T08:37:40.810Z,0.00
2018-07-31T08:39:12.179Z,0.00
2018-07-31T08:40:43.748Z,0.00
2018-07-31T08:42:15.317Z,0.00
2018-07-31T08:43:46.886Z,0.00
2018-07-31T08:45:18.456Z,0.00
2018-07-31T08:46:50.025Z,0.00
2018-07-31T08:48:21.595Z,0.00
2018-07-31T08:49:53.164Z,0.00
2018-07-31T08:51:24.733Z,0.00
2018-07-31T08:52:56.303Z,0.00
2018-07-31T08:54:27.873Z,0.00
2018-07-31T08:55:59.642Z,0.00
2018-07-31T08:57:31.011Z,0.00
2018-07-31T08:59:02.580Z,0.00
2018-07-31T09:00:34.151Z,0.00
2018-07-31T09:02:05.820Z,0.00
2018-07-31T09:03:37.288Z,0.00
2018-07-31T09:05:08.859Z,0.00
2018-07-31T09:06:40.427Z,0.00
2018-07-31T09:08:12.054Z,0.00
2018-07-31T09:09:43.565Z,0.00
2018-07-31T09:11:15.136Z,0.00
2018-07-31T09:21:36.461Z,0.00
2018-07-31T09:22:55.294Z,0.00
2018-07-31T09:24:26.940Z,0.00
2018-07-31T09:25:58.422Z,0.00
2018-07-31T09:27:29.990Z,0.00
2018-07-31T09:29:01.559Z,0.00
2018-07-31T09:30:33.238Z,0.00
2018-07-31T09:32:04.698Z,0.00
2018-07-31T09:33:36.266Z,0.00
2018-07-31T09:35:07.834Z,0.00
2018-07-31T09:36:39.503Z,0.00
2018-07-31T09:38:11.042Z,0.00
2018-07-31T09:39:42.539Z,0.00
2018-07-31T09:41:14.107Z,0.00
2018-07-31T09:42:45.742Z,0.00
2018-07-31T09:44:17.244Z,0.00
2018-07-31T09:45:48.812Z,0.00
2018-07-31T09:47:20.380Z,0.00
2018-07-31T09:48:52.049Z,5.63
2018-07-31T09:50:23.517Z,5.63
2018-07-31T09:51:55.085Z,5.63
2018-07-31T10:00:20.338Z,5.63
2018-07-31T10:01:51.909Z,5.63
2018-07-31T10:03:23.483Z,5.63
2018-07-31T10:04:55.196Z,5.63
2018-07-31T10:06:26.610Z,16.88
2018-07-31T10:09:29.750Z,33.75
2018-07-31T10:11:01.316Z,39.38
2018-07-31T10:12:32.884Z,39.38
2018-07-31T10:14:04.452Z,28.13
2018-07-31T10:15:36.022Z,28.13
2018-07-31T10:17:07.590Z,39.38
2018-07-31T10:18:39.158Z,39.38
2018-07-31T10:20:10.727Z,39.38
2018-07-31T10:21:42.295Z,33.75
2018-07-31T10:23:14.267Z,28.13
2018-07-31T10:24:45.432Z,28.13
2018-07-31T10:26:17.000Z,28.13
2018-07-31T10:27:48.569Z,39.38
2018-07-31T10:29:20.237Z,67.50
2018-07-31T10:30:52.295Z,101.25
2018-07-31T10:33:55.366Z,118.13
2018-07-31T10:35:26.413Z,101.25
2018-07-31T10:36:57.981Z,78.75
2018-07-31T10:38:29.567Z,78.75
2018-07-31T10:40:01.152Z,78.75
2018-07-31T10:41:32.889Z,73.13
2018-07-31T10:43:04.257Z,61.88
2018-07-31T10:44:35.877Z,50.63
2018-07-31T10:46:07.396Z,45.00
2018-07-31T10:47:38.964Z,39.38
2018-07-31T10:49:10.538Z,33.75
2018-07-31T10:50:42.154Z,39.38
2018-07-31T10:52:13.673Z,45.00
2018-07-31T10:53:45.241Z,67.50
2018-07-31T10:59:51.937Z,433.13
2018-07-31T11:01:23.089Z,478.13
2018-07-31T11:02:54.733Z,511.88
2018-07-31T11:04:26.747Z,483.75
2018-07-31T11:05:58.213Z,360.00
2018-07-31T11:09:01.439Z,208.13
2018-07-31T11:10:32.792Z,213.75
2018-07-31T11:12:04.695Z,230.63
2018-07-31T11:15:07.265Z,247.50
2018-07-31T11:16:38.780Z,219.38
2018-07-31T11:19:42.020Z,219.38
2018-07-31T11:21:13.518Z,225.00
2018-07-31T11:25:48.200Z,275.63
2018-07-31T11:30:22.916Z,258.75
2018-07-31T11:31:54.476Z,247.50
2018-07-31T11:33:26.047Z,230.63
2018-07-31T11:34:57.818Z,225.00
2018-07-31T11:36:29.910Z,253.13
2018-07-31T11:38:00.854Z,331.88
2018-07-31T11:39:32.378Z,371.25
2018-07-31T11:42:35.521Z,765.00
2018-07-31T11:44:07.180Z,1659.38
2018-07-31T11:45:38.806Z,1923.75
2018-07-31T11:47:11.307Z,2109.38
2018-07-31T11:50:13.357Z,860.63
2018-07-31T11:51:44.889Z,770.63
2018-07-31T11:53:16.497Z,646.88
2018-07-31T11:56:20.630Z,489.38
2018-07-31T11:59:22.952Z,371.25
2018-07-31T12:00:54.325Z,360.00
2018-07-31T12:03:57.469Z,466.88
2018-07-31T12:05:30.571Z,500.63
2018-07-31T12:07:01.118Z,573.75
2018-07-31T12:08:32.181Z,731.25
2018-07-31T12:10:03.773Z,1428.75
2018-07-31T12:11:35.686Z,675.00
2018-07-31T12:13:06.898Z,1001.25
2018-07-31T12:17:41.778Z,871.88
2018-07-31T12:19:13.193Z,838.13
2018-07-31T12:22:16.333Z,691.88
2018-07-31T12:25:19.480Z,883.13
2018-07-31T12:26:51.584Z,832.50
2018-07-31T12:28:22.627Z,697.50
2018-07-31T12:31:26.080Z,601.88
2018-07-31T12:36:00.497Z,517.50
2018-07-31T12:37:33.081Z,478.13
2018-07-31T12:39:03.644Z,523.13
2018-07-31T12:40:35.217Z,585.00
2018-07-31T12:42:07.060Z,669.38
2018-07-31T12:43:38.416Z,708.75
2018-07-31T12:45:09.936Z,697.50
2018-07-31T12:46:42.435Z,686.25
2018-07-31T12:48:13.416Z,686.25
2018-07-31T12:49:44.944Z,720.00
2018-07-31T12:51:17.028Z,748.13
2018-07-31T12:52:47.901Z,720.00
2018-07-31T12:54:19.383Z,720.00
2018-07-31T12:55:51.282Z,736.88
2018-07-31T12:57:22.531Z,770.63
2018-07-31T12:58:54.099Z,765.00
2018-07-31T13:00:25.668Z,765.00
2018-07-31T13:03:29.018Z,877.50
2018-07-31T13:05:00.693Z,905.63
2018-07-31T13:06:32.406Z,973.13
2018-07-31T13:08:03.627Z,1181.25
2018-07-31T13:09:37.265Z,1884.38
2018-07-31T13:11:08.279Z,1591.88
2018-07-31T13:12:39.796Z,1451.25
2018-07-31T13:14:11.061Z,1282.50
2018-07-31T13:15:42.854Z,1074.38
2018-07-31T13:17:14.452Z,849.38
2018-07-31T13:18:45.080Z,770.63
2018-07-31T13:20:16.242Z,787.50
2018-07-31T13:21:48.258Z,781.88
2018-07-31T13:24:50.966Z,770.63
2018-07-31T13:26:22.557Z,911.25
2018-07-31T13:27:54.148Z,990.00
2018-07-31T13:29:26.645Z,1119.38
2018-07-31T13:30:57.375Z,787.50
2018-07-31T13:32:28.749Z,1333.13
2018-07-31T13:35:31.993Z,1192.50
2018-07-31T13:37:03.522Z,1625.63
2018-07-31T13:38:35.044Z,2767.50
2018-07-31T13:41:38.396Z,2700.00
2018-07-31T13:43:10.074Z,1715.63
2018-07-31T13:44:42.274Z,4128.75
2018-07-31T13:46:13.173Z,2356.88
2018-07-31T13:47:44.761Z,3943.13
2018-07-31T13:49:16.812Z,1732.50
2018-07-31T13:52:20.948Z,3138.75
2018-07-31T13:53:51.094Z,2874.38
2018-07-31T13:55:22.557Z,2019.38
2018-07-31T13:56:53.978Z,1445.63
2018-07-31T13:59:57.139Z,967.50
2018-07-31T14:01:28.902Z,832.50
2018-07-31T14:03:01.614Z,759.38
2018-07-31T14:04:32.134Z,748.13
2018-07-31T14:06:03.480Z,658.13
2018-07-31T14:07:35.035Z,573.75
2018-07-31T14:09:06.816Z,540.00
2018-07-31T14:10:38.924Z,568.13
2018-07-31T14:12:09.969Z,675.00
2018-07-31T14:13:41.386Z,579.38
2018-07-31T14:15:12.922Z,590.63
2018-07-31T14:16:44.499Z,641.25
2018-07-31T14:19:47.778Z,556.88
2018-07-31T14:21:19.250Z,663.75
2018-07-31T14:22:50.807Z,922.50
2018-07-31T14:24:22.441Z,1878.75
2018-07-31T14:25:53.956Z,990.00
2018-07-31T14:27:25.560Z,579.38
2018-07-31T14:30:28.743Z,500.63
2018-07-31T14:32:00.564Z,573.75
2018-07-31T14:35:03.422Z,933.75
2018-07-31T14:36:35.252Z,984.38
2018-07-31T14:38:06.642Z,1006.88
2018-07-31T14:39:38.324Z,939.38
2018-07-31T14:41:09.919Z,922.50
2018-07-31T14:44:13.164Z,1192.50
2018-07-31T14:48:47.630Z,1710.00
2018-07-31T14:50:19.674Z,2795.63
2018-07-31T14:51:50.737Z,2649.38
2018-07-31T14:54:53.891Z,1513.13
2018-07-31T14:56:25.778Z,1417.50
2018-07-31T14:57:57.132Z,1175.63
2018-07-31T14:59:28.653Z,1051.88
2018-07-31T15:02:32.503Z,832.50
2018-07-31T15:04:03.354Z,826.88
2018-07-31T15:05:34.931Z,759.38
2018-07-31T15:07:07.236Z,675.00
2018-07-31T15:10:10.285Z,641.25
2018-07-31T15:11:41.542Z,646.88
2018-07-31T15:13:13.325Z,675.00
2018-07-31T15:16:16.175Z,551.25
2018-07-31T15:17:47.548Z,585.00
2018-07-31T15:19:19.124Z,573.75
2018-07-31T15:20:50.999Z,585.00
2018-07-31T15:22:22.474Z,641.25
2018-07-31T15:23:53.848Z,669.38
2018-07-31T15:25:25.550Z,691.88
2018-07-31T15:26:57.203Z,697.50
2018-07-31T15:28:28.977Z,697.50
2018-07-31T15:30:00.149Z,731.25
2018-07-31T15:33:03.298Z,978.75
2018-07-31T15:34:34.872Z,1057.50
2018-07-31T15:36:06.448Z,1057.50
2018-07-31T15:37:38.545Z,1057.50
2018-07-31T15:39:09.601Z,1130.63
2018-07-31T15:40:41.187Z,1068.75
2018-07-31T15:43:44.379Z,877.50
2018-07-31T15:45:15.902Z,855.00
2018-07-31T15:46:47.637Z,888.75
2018-07-31T15:51:22.213Z,1338.75
2018-07-31T15:54:25.405Z,1040.63
2018-07-31T15:55:57.138Z,888.75
2018-07-31T15:57:28.514Z,781.88
2018-07-31T15:59:00.090Z,759.38
2018-07-31T16:00:31.664Z,793.13
2018-07-31T16:02:03.240Z,888.75
2018-07-31T16:03:34.816Z,900.00
2018-07-31T16:05:06.393Z,787.50
2018-07-31T16:06:38.453Z,742.50
2018-07-31T16:08:10.269Z,675.00
2018-07-31T16:09:41.119Z,590.63
2018-07-31T16:11:12.703Z,556.88
2018-07-31T16:12:44.306Z,478.13
2018-07-31T16:14:15.849Z,506.25
2018-07-31T16:15:47.429Z,590.63
2018-07-31T16:17:20.134Z,686.25
2018-07-31T16:18:51.078Z,697.50
2018-07-31T16:21:54.242Z,646.88
2018-07-31T16:23:25.497Z,658.13
2018-07-31T16:24:56.993Z,691.88
2018-07-31T16:26:28.444Z,607.50
2018-07-31T16:28:00.022Z,601.88
2018-07-31T16:29:31.692Z,663.75
2018-07-31T16:31:03.745Z,855.00
2018-07-31T16:35:37.890Z,1080.00
2018-07-31T16:37:09.468Z,1040.63
2018-07-31T16:38:41.242Z,933.75
2018-07-31T16:40:12.615Z,815.63
2018-07-31T16:41:44.395Z,697.50
2018-07-31T16:43:15.867Z,686.25
2018-07-31T16:44:47.545Z,742.50
2018-07-31T16:46:18.917Z,781.88
2018-07-31T16:47:50.794Z,826.88
2018-07-31T16:49:22.595Z,787.50
2018-07-31T16:50:53.868Z,753.75
2018-07-31T16:52:25.216Z,894.38
2018-07-31T16:53:57.016Z,1085.63
2018-07-31T16:55:28.367Z,950.63
2018-07-31T16:58:31.515Z,759.38
2018-07-31T17:00:03.093Z,956.25
2018-07-31T17:01:34.778Z,1265.63
2018-07-31T17:03:06.545Z,1203.75
2018-07-31T17:06:09.395Z,894.38
2018-07-31T17:07:41.007Z,967.50
2018-07-31T17:10:44.118Z,1051.88
2018-07-31T17:15:18.845Z,1023.75
2018-07-31T17:16:50.422Z,1063.13
2018-07-31T17:18:22.924Z,961.88
2018-07-31T17:19:53.572Z,860.63
2018-07-31T17:21:25.619Z,877.50
2018-07-31T17:22:56.726Z,916.88
2018-07-31T17:26:00.398Z,945.00
2018-07-31T17:29:03.028Z,956.25
2018-07-31T17:30:34.603Z,945.00
2018-07-31T17:32:06.177Z,883.13
2018-07-31T17:33:37.754Z,810.00
2018-07-31T17:35:09.328Z,793.13
2018-07-31T17:36:41.462Z,855.00
2018-07-31T17:38:12.791Z,855.00
2018-07-31T17:39:44.212Z,781.88
2018-07-31T17:42:47.308Z,821.25
2018-07-31T17:44:18.821Z,815.63
2018-07-31T17:45:50.359Z,663.75
2018-07-31T17:47:22.455Z,714.38
2018-07-31T17:50:25.183Z,635.63
2018-07-31T17:51:56.709Z,618.75
2018-07-31T17:53:28.434Z,568.13
2018-07-31T17:55:00.530Z,585.00
2018-07-31T17:56:31.684Z,618.75
2018-07-31T17:59:34.731Z,483.75
2018-07-31T18:01:06.102Z,483.75
2018-07-31T18:02:37.777Z,579.38
2018-07-31T18:04:09.252Z,596.25
2018-07-31T18:05:40.829Z,669.38
2018-07-31T18:07:12.702Z,843.75
2018-07-31T18:08:44.278Z,900.00
2018-07-31T18:10:15.548Z,978.75
2018-07-31T18:11:47.121Z,905.63
2018-07-31T18:13:19.218Z,714.38
2018-07-31T18:16:21.844Z,607.50
2018-07-31T18:17:53.421Z,607.50
2018-07-31T18:19:25.130Z,652.50
2018-07-31T18:20:56.570Z,691.88
2018-07-31T18:22:29.569Z,630.00
2018-07-31T18:23:59.775Z,641.25
2018-07-31T18:25:31.813Z,669.38
2018-07-31T18:27:02.898Z,714.38
2018-07-31T18:28:34.573Z,663.75
2018-07-31T18:30:06.014Z,641.25
2018-07-31T18:31:37.863Z,736.88
2018-07-31T18:33:09.733Z,776.25
2018-07-31T18:34:41.264Z,815.63
2018-07-31T18:36:12.337Z,753.75
2018-07-31T18:37:43.884Z,725.63
2018-07-31T18:42:18.710Z,528.75
2018-07-31T18:43:50.954Z,652.50
2018-07-31T18:46:53.383Z,703.13
2018-07-31T18:48:24.905Z,624.38
2018-07-31T18:49:56.477Z,590.63
2018-07-31T18:52:59.826Z,573.75
2018-07-31T18:54:31.222Z,534.38
2018-07-31T18:56:03.094Z,489.38
2018-07-31T18:57:34.345Z,427.50
2018-07-31T19:00:37.491Z,455.63
2018-07-31T19:02:09.419Z,455.63
2018-07-31T19:03:40.887Z,506.25
2018-07-31T19:06:43.800Z,433.13
2018-07-31T19:08:15.362Z,376.88
2018-07-31T19:09:47.234Z,348.75
2018-07-31T19:11:18.505Z,382.50
2018-07-31T19:12:50.077Z,511.88
2018-07-31T19:14:21.757Z,433.13
2018-07-31T19:15:53.424Z,365.63
2018-07-31T19:17:24.796Z,382.50
2018-07-31T19:20:28.041Z,416.25
2018-07-31T19:21:59.715Z,489.38
2018-07-31T19:23:31.086Z,483.75
2018-07-31T19:25:02.664Z,450.00
2018-07-31T19:26:34.233Z,416.25
2018-07-31T19:28:06.529Z,421.88
2018-07-31T19:31:09.470Z,472.50
2018-07-31T19:32:40.519Z,506.25
2018-07-31T19:34:12.391Z,500.63
2018-07-31T19:35:43.668Z,410.63
2018-07-31T19:37:15.236Z,410.63
2018-07-31T19:38:47.212Z,393.75
2018-07-31T19:41:50.182Z,343.13
2018-07-31T19:43:22.048Z,315.00
2018-07-31T19:44:53.196Z,253.13
2018-07-31T19:46:24.685Z,202.50
2018-07-31T19:47:56.239Z,208.13
2018-07-31T19:49:28.045Z,219.38
2018-07-31T19:50:59.382Z,241.88
2018-07-31T19:54:02.520Z,196.88
2018-07-31T19:55:34.092Z,219.38
2018-07-31T19:57:05.763Z,174.38
2018-07-31T19:58:37.361Z,140.63
2018-07-31T20:00:08.804Z,146.25
2018-07-31T20:01:40.425Z,151.88
2018-07-31T20:03:11.945Z,146.25
2018-07-31T20:04:43.518Z,140.63
2018-07-31T20:06:15.087Z,118.13
2018-07-31T20:09:18.236Z,140.63
2018-07-31T20:10:49.798Z,163.13
2018-07-31T20:12:21.671Z,163.13
2018-07-31T20:13:52.938Z,168.75
2018-07-31T20:15:24.822Z,168.75
2018-07-31T20:16:56.281Z,151.88
2018-07-31T20:18:27.957Z,123.75
2018-07-31T20:19:59.220Z,112.50
2018-07-31T20:21:30.789Z,101.25
2018-07-31T20:23:02.359Z,90.00
2018-07-31T20:24:33.931Z,73.13
2018-07-31T20:26:05.499Z,67.50
2018-07-31T20:27:37.069Z,67.50
2018-07-31T20:29:08.639Z,56.25
2018-07-31T20:30:40.250Z,39.38
2018-07-31T20:32:11.780Z,28.13
2018-07-31T20:33:43.452Z,22.50
2018-07-31T20:35:14.920Z,16.88
2018-07-31T20:36:46.669Z,11.25
2018-07-31T20:38:18.058Z,11.25
2018-07-31T20:39:49.629Z,11.25
2018-07-31T20:41:21.207Z,5.63
2018-07-31T20:42:52.770Z,5.63
2018-07-31T20:44:24.339Z,5.63
2018-07-31T20:45:55.907Z,0.00
2018-07-31T20:47:27.478Z,0.00
2018-07-31T20:48:59.049Z,0.00
2018-07-31T20:50:30.616Z,0.00
2018-07-31T20:52:02.292Z,0.00
2018-07-31T20:53:33.758Z,0.00
2018-07-31T20:55:05.326Z,0.00
2018-07-31T20:56:36.896Z,0.00
2018-07-31T20:58:08.463Z,0.00
2018-07-31T20:59:40.036Z,0.00
2018-07-31T21:01:11.603Z,0.00
2018-07-31T21:02:43.172Z,0.00
2018-07-31T21:04:14.742Z,0.00
2018-07-31T21:05:46.311Z,0.00
2018-07-31T21:07:17.911Z,0.00
2018-07-31T21:08:49.453Z,0.00
2018-07-31T21:10:21.119Z,0.00
2018-07-31T21:11:52.589Z,0.00
2018-07-31T21:13:24.158Z,0.00
2018-07-31T21:14:55.727Z,0.00
2018-07-31T21:16:27.296Z,0.00
2018-07-31T21:17:58.889Z,0.00
2018-07-31T21:19:30.436Z,0.00
2018-07-31T21:21:02.007Z,0.00
2018-07-31T21:22:33.574Z,0.00
2018-07-31T21:24:05.143Z,0.00
2018-07-31T21:25:36.712Z,0.00
2018-07-31T21:27:08.283Z,0.00
2018-07-31T21:28:39.952Z,0.00
2018-07-31T21:30:11.420Z,0.00
2018-07-31T21:31:42.990Z,0.00
2018-07-31T21:33:14.564Z,0.00
2018-07-31T21:34:46.159Z,0.00
2018-07-31T21:36:17.699Z,0.00
2018-07-31T21:37:49.267Z,0.00
2018-07-31T21:39:20.912Z,0.00
2018-07-31T21:40:52.407Z,0.00
2018-07-31T21:42:23.976Z,0.00
2018-07-31T21:43:55.545Z,0.00
2018-07-31T21:45:27.114Z,0.00